Time;durP1;ratioP1;P1;durP2;ratioP2;P2;SDS_P1;SDS_P2;PMS_P1;PMS_P2;Temp;Humidity;BMP_temperature;BMP_pressure;BME280_temperature;BME280_humidity;BME280_pressure;Samples;Min_cycle;Max_cycle;Signal;HPM_P1;HPM_P2
2023/04/15 00:01:00;;;;;;;4.88;4.47;;;;;;;6.19;100.00;97437.88;15272413;19;20014;-44
2023/04/15 00:06:25;;;;;;;5.00;4.60;;;;;;;6.27;100.00;97445.13;15269953;19;20014;-42
2023/04/15 00:11:53;;;;;;;4.88;4.47;;;;;;;6.23;100.00;97452.63;15266997;19;20015;-42
2023/04/15 00:17:19;;;;;;;5.70;5.20;;;;;;;6.26;100.00;97446.94;15265688;19;20015;-82
2023/04/15 00:28:40;;;;;;;6.00;5.40;;;;;;;6.22;100.00;97450.09;15279434;19;19988;-82
2023/04/15 00:34:05;;;;;;;6.03;5.43;;;;;;;6.23;100.00;97441.94;15281633;19;20010;-84
2023/04/15 00:39:30;;;;;;;4.85;4.45;;;;;;;6.23;100.00;97435.72;15281550;19;20348;-83
2023/04/15 00:44:58;;;;;;;5.35;4.95;;;;;;;6.16;100.00;97441.72;15275745;19;20018;-82
2023/04/15 00:50:22;;;;;;;5.65;5.15;;;;;;;6.14;100.00;97427.66;15282981;19;20018;-82
2023/04/15 00:55:47;;;;;;;4.82;4.43;;;;;;;6.07;100.00;97425.78;15290321;19;20031;-82
2023/04/15 01:01:14;;;;;;;5.20;4.70;;;;;;;6.14;100.00;97416.97;15303163;19;20017;-82
2023/04/15 01:06:41;;;;;;;5.40;5.00;;;;;;;6.15;100.00;97405.28;15293876;19;20118;-82
2023/04/15 01:12:05;;;;;;;4.40;4.05;;;;;;;6.12;100.00;97408.25;15299047;19;20041;-83
2023/04/15 01:17:39;;;;;;;3.97;3.60;;;;;;;5.98;100.00;97408.81;15291647;19;20015;-83
2023/04/15 01:23:05;;;;;;;3.90;3.60;;;;;;;6.06;100.00;97398.19;15295549;19;20046;-83
2023/04/15 01:34:43;;;;;;;4.00;3.70;;;;;;;5.97;100.00;97396.44;15299069;19;20007;-83
2023/04/15 01:40:10;;;;;;;4.60;4.20;;;;;;;5.97;100.00;97396.44;15300919;19;20014;-83
2023/04/15 01:45:36;;;;;;;4.60;4.28;;;;;;;5.94;100.00;97402.94;15302069;19;20078;-83
2023/04/15 01:51:11;;;;;;;4.78;4.38;;;;;;;5.90;100.00;97403.41;15338240;19;20062;-83
2023/04/15 02:03:02;;;;;;;4.70;4.30;;;;;;;5.89;100.00;97409.75;15292946;19;19990;-83
2023/04/15 02:08:30;;;;;;;4.10;3.80;;;;;;;5.78;100.00;97392.97;15285585;19;20360;-81
2023/04/15 02:13:55;;;;;;;3.63;3.33;;;;;;;5.77;100.00;97388.63;15287942;19;20498;-83
2023/04/15 02:19:27;;;;;;;3.63;3.33;;;;;;;5.70;100.00;97387.59;15283534;19;20015;-83
2023/04/15 02:24:54;;;;;;;4.10;3.80;;;;;;;5.71;100.00;97390.09;15292556;19;20014;-82
2023/04/15 02:30:22;;;;;;;3.50;3.20;;;;;;;5.72;100.00;97374.88;15289255;19;20053;-83
2023/04/15 02:35:47;;;;;;;3.35;3.10;;;;;;;5.60;100.00;97381.47;15285710;19;20371;-82
2023/04/15 02:41:15;;;;;;;3.97;3.58;;;;;;;5.58;100.00;97381.63;15289289;19;20424;-82
2023/04/15 02:46:40;;;;;;;4.32;3.92;;;;;;;5.57;100.00;97381.81;15285957;19;20011;-84
2023/04/15 02:52:07;;;;;;;4.88;4.38;;;;;;;5.61;100.00;97385.81;15287971;19;20360;-83
2023/04/15 02:57:36;;;;;;;4.70;4.30;;;;;;;5.62;100.00;97388.34;15290241;19;20081;-82
2023/04/15 03:03:11;;;;;;;5.15;4.75;;;;;;;5.67;100.00;97395.91;15291748;19;20018;-83
2023/04/15 03:08:35;;;;;;;5.90;5.40;;;;;;;5.74;100.00;97391.59;15285704;19;20070;-84
2023/04/15 03:14:04;;;;;;;6.05;5.10;;;;;;;5.68;100.00;97398.41;15289134;19;20014;-84
2023/04/15 03:19:37;;;;;;;6.78;5.82;;;;;;;5.58;100.00;97395.00;15283031;19;20466;-83
2023/04/15 03:25:02;;;;;;;6.67;6.07;;;;;;;5.44;100.00;97388.38;15288339;19;20018;-83
2023/04/15 03:30:29;;;;;;;6.03;5.43;;;;;;;5.33;100.00;97396.63;15290236;19;20666;-84
2023/04/15 03:35:55;;;;;;;7.60;6.90;;;;;;;5.33;100.00;97401.97;15285256;19;20010;-84
2023/04/15 03:41:24;;;;;;;8.50;7.60;;;;;;;5.25;100.00;97405.41;15286423;19;20018;-85
2023/04/15 03:46:55;;;;;;;7.45;6.57;;;;;;;5.23;100.00;97410.88;15287298;19;20011;-82
2023/04/15 03:52:20;;;;;;;8.75;7.88;;;;;;;5.21;100.00;97407.53;15290925;19;20018;-84
2023/04/15 03:57:46;;;;;;;9.48;8.48;;;;;;;5.17;100.00;97414.16;15285056;19;20031;-83
2023/04/15 04:03:14;;;;;;;10.43;9.30;;;;;;;5.19;100.00;97422.88;15295768;19;20017;-83
2023/04/15 04:08:39;;;;;;;10.63;8.88;;;;;;;5.16;100.00;97411.66;15290624;19;20029;-85
2023/04/15 04:14:04;;;;;;;11.35;8.50;;;;;;;5.15;100.00;97420.66;15292407;19;20018;-83
2023/04/15 04:19:38;;;;;;;10.85;9.18;;;;;;;5.09;100.00;97422.09;15287996;19;20006;-84
2023/04/15 04:25:09;;;;;;;10.25;8.63;;;;;;;5.09;100.00;97428.28;15286501;19;20383;-84
2023/04/15 04:30:34;;;;;;;10.50;8.75;;;;;;;5.05;100.00;97434.06;15303562;19;20014;-83
2023/04/15 04:36:02;;;;;;;11.15;9.60;;;;;;;5.09;100.00;97443.47;15302446;19;20078;-83
2023/04/15 04:41:27;;;;;;;7.97;7.18;;;;;;;5.08;100.00;97455.13;15312554;19;20019;-85
2023/04/15 04:46:52;;;;;;;8.57;6.80;;;;;;;5.10;100.00;97445.16;15306871;19;20010;-84
2023/04/15 04:52:29;;;;;;;6.78;6.03;;;;;;;5.07;100.00;97437.44;15319500;19;20422;-84
2023/04/15 04:57:55;;;;;;;7.05;6.03;;;;;;;5.08;100.00;97417.75;15321908;19;20011;-84
2023/04/15 05:03:28;;;;;;;8.27;7.38;;;;;;;5.03;100.00;97417.34;15331062;19;20051;-85
2023/04/15 05:08:56;;;;;;;8.48;7.50;;;;;;;5.02;100.00;97426.34;15374686;19;20014;-85
2023/04/15 05:14:31;;;;;;;9.55;8.15;;;;;;;5.03;100.00;97417.34;15365466;19;20016;-84
2023/04/15 05:20:02;;;;;;;9.95;8.00;;;;;;;5.06;100.00;97427.75;15364842;19;20023;-85
2023/04/15 05:25:31;;;;;;;8.55;7.60;;;;;;;5.06;100.00;97433.91;15364724;19;20010;-85
2023/04/15 05:30:56;;;;;;;6.90;6.20;;;;;;;5.07;100.00;97440.09;15358159;19;20051;-86
2023/04/15 05:36:21;;;;;;;8.73;7.03;;;;;;;5.12;100.00;97447.66;15329975;19;20442;-83
2023/04/15 05:41:48;;;;;;;8.20;7.40;;;;;;;5.13;100.00;97449.34;15289864;19;20027;-84
2023/04/15 05:47:12;;;;;;;8.68;7.22;;;;;;;5.12;100.00;97444.97;15288898;19;20026;-83
2023/04/15 05:52:38;;;;;;;9.60;8.60;;;;;;;5.16;100.00;97455.22;15310427;19;20426;-85
2023/04/15 05:58:05;;;;;;;10.65;9.07;;;;;;;5.16;100.00;97451.72;15290669;19;20010;-84
2023/04/15 06:03:31;;;;;;;9.55;8.55;;;;;;;5.13;100.00;97450.16;15287079;19;20041;-84
2023/04/15 06:08:58;;;;;;;9.52;8.63;;;;;;;5.10;100.00;97453.16;15282596;19;20025;-83
2023/04/15 06:14:26;;;;;;;9.45;8.50;;;;;;;5.11;100.00;97454.84;15283354;19;20074;-84
2023/04/15 06:19:57;;;;;;;10.30;9.18;;;;;;;5.08;100.00;97463.13;15288080;19;20018;-84
2023/04/15 06:25:21;;;;;;;11.53;10.33;;;;;;;5.12;100.00;97469.00;15287690;19;20014;-84
2023/04/15 06:30:49;;;;;;;13.32;10.55;;;;;;;5.11;100.00;97470.84;15273224;19;20423;-88
2023/04/15 06:36:14;;;;;;;14.88;11.80;;;;;;;5.12;100.00;97477.84;14776528;19;10000696;-85
2023/04/15 06:41:39;;;;;;;15.07;12.68;;;;;;;5.19;100.00;97488.78;15294590;19;20486;-85
2023/04/15 06:47:08;;;;;;;15.75;12.57;;;;;;;5.18;100.00;97490.63;15293519;19;20280;-87
2023/04/15 06:52:33;;;;;;;19.13;12.45;;;;;;;5.16;100.00;97487.25;15301439;19;20022;-86
2023/04/15 06:57:57;;;;;;;15.88;12.32;;;;;;;5.16;100.00;97476.56;15299265;19;20032;-84
2023/04/15 07:03:25;;;;;;;15.07;12.40;;;;;;;5.22;100.00;97491.16;15292600;19;20019;-83
2023/04/15 07:08:50;;;;;;;16.80;13.18;;;;;;;5.29;100.00;97502.06;15288377;19;20010;-84
2023/04/15 07:14:15;;;;;;;19.17;14.27;;;;;;;5.30;100.00;97503.75;15289094;19;20033;-83
2023/04/15 07:19:50;;;;;;;16.73;13.23;;;;;;;5.32;100.00;97509.78;15300026;19;20018;-85
2023/04/15 07:25:16;;;;;;;17.90;13.77;;;;;;;5.37;100.00;97516.34;15292953;19;20020;-84
2023/04/15 07:30:41;;;;;;;16.17;13.02;;;;;;;5.37;100.00;97513.69;15302979;19;20011;-84
2023/04/15 07:36:09;;;;;;;16.83;13.15;;;;;;;5.40;100.00;97515.22;15273305;19;20033;-84
2023/04/15 07:41:34;;;;;;;19.20;14.73;;;;;;;5.42;100.00;97518.56;15275607;19;20018;-85
2023/04/15 07:46:58;;;;;;;15.82;12.80;;;;;;;5.46;100.00;97519.09;15284115;19;20018;-85
2023/04/15 07:52:26;;;;;;;19.25;14.88;;;;;;;5.47;100.00;97521.63;15278683;19;20018;-85
2023/04/15 07:57:51;;;;;;;22.05;16.55;;;;;;;5.52;100.00;97527.34;15286281;19;20029;-84
2023/04/15 08:03:15;;;;;;;20.58;15.77;;;;;;;5.55;100.00;97523.53;15282067;19;20077;-85
2023/04/15 08:08:42;;;;;;;19.33;14.88;;;;;;;5.54;100.00;97546.75;15300530;19;20035;-84
2023/04/15 08:14:07;;;;;;;17.02;13.40;;;;;;;5.61;100.00;97554.16;15292116;19;20015;-84
2023/04/15 08:19:32;;;;;;;16.70;13.50;;;;;;;5.62;100.00;97551.34;15302812;19;20018;-86
2023/04/15 08:25:00;;;;;;;15.32;12.07;;;;;;;5.66;100.00;97559.91;15293690;19;20026;-84
2023/04/15 08:30:25;;;;;;;13.60;10.88;;;;;;;5.63;100.00;97552.16;15288929;19;20487;-85
2023/04/15 08:35:50;;;;;;;16.20;12.35;;;;;;;5.75;100.00;97552.81;15295197;19;20007;-88
2023/04/15 08:41:23;;;;;;;17.17;12.60;;;;;;;5.75;100.00;97548.28;15294706;19;20018;-85
2023/04/15 08:46:49;;;;;;;17.50;12.50;;;;;;;5.78;100.00;97561.34;15297394;19;20022;-84
2023/04/15 08:52:14;;;;;;;14.30;10.85;;;;;;;5.82;100.00;97568.06;15300887;19;20666;-84
2023/04/15 08:57:42;;;;;;;10.90;8.98;;;;;;;5.82;100.00;97594.78;15298891;19;20025;-85
2023/04/15 09:03:07;;;;;;;11.88;9.40;;;;;;;5.90;100.00;97591.34;15292568;19;20018;-86
2023/04/15 09:08:33;;;;;;;10.65;8.77;;;;;;;5.90;100.00;97590.53;15323852;19;20025;-85
2023/04/15 09:14:01;;;;;;;11.00;8.85;;;;;;;5.93;100.00;97595.59;15289263;19;20026;-84
2023/04/15 09:19:29;;;;;;;10.20;8.70;;;;;;;5.98;100.00;97594.13;15299030;19;20011;-86
2023/04/15 09:24:53;;;;;;;9.85;8.52;;;;;;;6.06;100.00;97601.41;15290491;19;20022;-86
2023/04/15 09:30:21;;;;;;;7.47;6.40;;;;;;;6.09;100.00;97606.44;15290617;19;20006;-85
2023/04/15 09:35:58;;;;;;;8.18;6.85;;;;;;;6.15;100.00;97615.69;15293298;19;20020;-85
2023/04/15 09:41:26;;;;;;;7.60;6.50;;;;;;;6.14;100.00;97604.16;15293399;19;20089;-85
2023/04/15 09:46:53;;;;;;;7.47;6.20;;;;;;;6.25;100.00;97610.25;15293959;19;20011;-85
2023/04/15 09:52:22;;;;;;;6.18;5.47;;;;;;;6.29;100.00;97627.69;15287050;19;20018;-84
2023/04/15 09:57:48;;;;;;;5.47;4.93;;;;;;;6.35;100.00;97634.28;15296444;19;20018;-85
2023/04/15 10:03:16;;;;;;;6.00;4.80;;;;;;;6.40;100.00;97632.81;15286962;19;20033;-85
2023/04/15 10:08:41;;;;;;;8.18;5.10;;;;;;;6.47;100.00;97636.53;15295951;19;20447;-84
2023/04/15 10:14:07;;;;;;;5.18;4.32;;;;;;;6.51;100.00;97638.91;15287859;19;20029;-87
2023/04/15 10:19:38;;;;;;;5.15;4.40;;;;;;;6.48;100.00;97634.69;15294557;19;20021;-85
2023/04/15 10:25:04;;;;;;;4.10;3.73;;;;;;;6.57;100.00;97643.63;15284267;19;20019;-85
2023/04/15 10:30:30;;;;;;;3.88;3.40;;;;;;;6.60;100.00;97646.00;15284473;19;20017;-85
2023/04/15 10:36:02;;;;;;;4.07;3.67;;;;;;;6.62;100.00;97644.03;15291761;19;20018;-85
2023/04/15 10:41:29;;;;;;;4.37;3.10;;;;;;;6.67;100.00;97635.53;15286974;19;20020;-86
2023/04/15 10:46:54;;;;;;;3.40;3.10;;;;;;;6.71;100.00;97637.72;15291720;19;20105;-87
2023/04/15 10:52:26;;;;;;;3.53;3.22;;;;;;;6.78;100.00;97654.00;15291333;19;20015;-86
2023/04/15 10:57:52;;;;;;;2.60;2.40;;;;;;;6.73;100.00;97657.16;15294762;19;20018;-85
2023/04/15 11:03:16;;;;;;;2.00;1.90;;;;;;;6.79;100.00;97655.69;15290247;19;20022;-86
2023/04/15 11:09:08;;;;;;;2.03;1.85;;;;;;;6.84;100.00;97647.19;15299434;19;20018;-85
2023/04/15 11:14:35;;;;;;;2.42;1.20;;;;;;;6.85;100.00;97643.50;15285170;19;20019;-85
2023/04/15 11:20:06;;;;;;;1.63;1.52;;;;;;;6.90;100.00;97659.94;15280817;19;20794;-86
2023/04/15 11:25:36;;;;;;;1.30;1.13;;;;;;;6.90;100.00;97663.47;15282239;19;20011;-86
2023/04/15 11:31:03;;;;;;;1.20;1.10;;;;;;;6.96;100.00;97662.00;15280911;19;20018;-86
2023/04/15 11:36:30;;;;;;;1.35;1.25;;;;;;;7.00;100.00;97667.88;15285250;19;20026;-85
2023/04/15 11:41:58;;;;;;;1.05;0.95;;;;;;;7.01;100.00;97661.53;15285311;19;20014;-86
2023/04/15 11:47:26;;;;;;;0.90;0.90;;;;;;;7.03;100.00;97662.22;15288638;19;20018;-85
2023/04/15 11:52:51;;;;;;;0.70;0.70;;;;;;;7.06;100.00;97665.41;15282910;19;20017;-85
2023/04/15 11:58:20;;;;;;;1.98;0.90;;;;;;;7.15;100.00;97670.81;15287239;19;20671;-86
2023/04/15 12:03:47;;;;;;;0.88;0.88;;;;;;;7.20;100.00;97676.53;15280437;19;20081;-85
2023/04/15 12:09:14;;;;;;;0.80;0.80;;;;;;;7.29;100.00;97678.25;15277126;19;20022;-86
2023/04/15 12:14:42;;;;;;;0.98;0.70;;;;;;;7.32;100.00;97679.78;15278251;19;20031;-85
2023/04/15 12:20:08;;;;;;;2.35;1.02;;;;;;;7.40;100.00;97685.22;15277983;19;20029;-86
2023/04/15 12:25:43;;;;;;;0.70;0.70;;;;;;;7.39;100.00;97700.44;15280397;19;20018;-86
2023/04/15 12:31:14;;;;;;;0.63;0.63;;;;;;;7.47;100.00;97686.22;15276543;19;20081;-85
2023/04/15 12:36:40;;;;;;;0.77;0.77;;;;;;;7.48;100.00;97693.28;15316124;19;20023;-84
2023/04/15 12:42:05;;;;;;;0.80;0.80;;;;;;;7.52;100.00;97693.78;15353095;19;20013;-85
2023/04/15 12:47:33;;;;;;;0.82;0.82;;;;;;;7.51;100.00;97697.47;15358472;19;20030;-85
2023/04/15 12:52:57;;;;;;;0.90;0.90;;;;;;;7.53;100.00;97711.56;15371025;19;20010;-86
2023/04/15 12:58:22;;;;;;;1.10;1.10;;;;;;;7.50;100.00;97707.38;15371597;19;20021;-87
2023/04/15 13:03:49;;;;;;;1.23;1.00;;;;;;;7.56;100.00;97711.25;15304571;19;20350;-88
2023/04/15 13:09:15;;;;;;;1.00;1.00;;;;;;;7.62;100.00;97718.63;15309480;19;20378;-86
2023/04/15 13:14:40;;;;;;;1.00;1.00;;;;;;;7.71;100.00;97722.19;15297066;19;20029;-88
2023/04/15 13:20:15;;;;;;;1.95;1.10;;;;;;;7.77;100.00;97739.50;15299215;19;20015;-86
2023/04/15 13:25:39;;;;;;;1.30;1.20;;;;;;;7.79;100.00;97748.22;15292143;19;20013;-86
2023/04/15 13:31:04;;;;;;;1.60;1.10;;;;;;;7.80;100.00;97749.91;15288652;19;20033;-86
2023/04/15 13:36:31;;;;;;;1.10;1.00;;;;;;;7.85;100.00;97752.94;15296584;19;20025;-84
2023/04/15 13:41:56;;;;;;;1.30;1.20;;;;;;;7.92;100.00;97767.41;15291935;19;20150;-86
2023/04/15 13:47:21;;;;;;;1.00;1.00;;;;;;;7.94;100.00;97768.06;15298565;19;20486;-86
2023/04/15 13:52:49;;;;;;;1.20;1.10;;;;;;;8.05;100.00;97776.84;15291470;19;20018;-86
2023/04/15 13:58:14;;;;;;;1.00;1.00;;;;;;;8.09;100.00;97764.75;15304292;19;20015;-86
2023/04/15 14:03:38;;;;;;;1.52;1.30;;;;;;;8.07;100.00;97761.41;15294035;19;20074;-85
2023/04/15 14:09:05;;;;;;;1.00;1.00;;;;;;;8.02;100.00;97765.44;15302133;19;20014;-86
2023/04/15 14:14:31;;;;;;;2.45;1.20;;;;;;;8.11;100.00;97778.88;15292494;19;20659;-87
2023/04/15 14:19:56;;;;;;;1.30;1.20;;;;;;;8.07;100.00;97783.72;15299894;19;20086;-87
2023/04/15 14:25:23;;;;;;;1.30;1.20;;;;;;;8.10;100.00;97782.53;15290537;19;20096;-85
2023/04/15 14:30:50;;;;;;;1.40;1.30;;;;;;;8.11;100.00;97787.78;15295179;19;20477;-85
2023/04/15 14:36:17;;;;;;;1.60;1.50;;;;;;;8.13;100.00;97806.38;15298036;19;20031;-87
2023/04/15 14:41:44;;;;;;;1.38;1.27;;;;;;;8.10;100.00;97795.97;15301776;19;20157;-86
2023/04/15 14:47:09;;;;;;;1.67;1.58;;;;;;;8.09;100.00;97805.88;15301519;19;20018;-86
2023/04/15 14:52:37;;;;;;;1.50;1.40;;;;;;;8.10;100.00;97812.91;15295805;19;20057;-85
2023/04/15 14:58:05;;;;;;;2.00;1.80;;;;;;;8.12;100.00;97834.19;15304107;19;20010;-86
2023/04/15 15:03:30;;;;;;;2.50;2.20;;;;;;;8.12;100.00;97845.75;15279661;19;20019;-49
2023/04/15 15:08:55;;;;;;;2.10;1.90;;;;;;;8.17;100.00;97850.69;15285203;19;20089;-48
2023/04/15 15:14:22;;;;;;;3.85;2.10;;;;;;;8.17;100.00;97854.19;15279346;19;20015;-48
2023/04/15 15:19:47;;;;;;;2.70;2.50;;;;;;;8.20;100.00;97869.13;15266815;19;20356;-46
2023/04/15 15:25:11;;;;;;;2.90;2.60;;;;;;;8.25;100.00;97880.22;15276290;19;20014;-46
2023/04/15 15:30:39;;;;;;;4.40;3.10;;;;;;;8.26;100.00;97883.72;15273213;19;20020;-47
2023/04/15 15:36:04;;;;;;;4.82;3.03;;;;;;;8.25;100.00;97893.66;15281590;19;20471;-46
2023/04/15 15:41:29;;;;;;;4.35;3.10;;;;;;;8.26;100.00;97915.94;15275112;19;20025;-48
2023/04/15 15:46:56;;;;;;;4.25;3.28;;;;;;;8.27;100.00;97917.63;15280301;19;20039;-47
2023/04/15 15:52:21;;;;;;;3.35;2.97;;;;;;;8.32;100.00;97928.75;15271671;19;20015;-47
2023/04/15 15:57:45;;;;;;;3.10;2.70;;;;;;;8.27;100.00;97929.22;15279340;19;20334;-46
2023/04/15 16:03:13;;;;;;;7.57;3.15;;;;;;;8.29;100.00;97937.94;15270555;19;20478;-46
2023/04/15 16:08:37;;;;;;;4.95;3.50;;;;;;;8.28;100.00;97947.00;15282475;19;20018;-47
2023/04/15 16:14:02;;;;;;;4.57;3.60;;;;;;;8.30;100.00;97955.72;15273356;19;20020;-45
2023/04/15 16:19:36;;;;;;;5.15;3.92;;;;;;;8.30;100.00;97962.94;15276615;19;20025;-46
2023/04/15 16:25:17;;;;;;;4.90;3.90;;;;;;;8.21;100.00;97980.00;15280697;19;20018;-47
2023/04/15 16:30:45;;;;;;;4.82;3.90;;;;;;;8.16;100.00;97981.28;15283979;19;20369;-47
2023/04/15 16:36:13;;;;;;;5.10;3.75;;;;;;;8.19;100.00;97985.50;15292596;19;20042;-48
2023/04/15 16:41:38;;;;;;;5.55;4.10;;;;;;;8.16;100.00;97997.41;15293896;19;20022;-51
2023/04/15 16:47:04;;;;;;;5.70;4.40;;;;;;;8.12;100.00;97989.81;15292748;19;20041;-50
2023/04/15 16:52:32;;;;;;;6.00;5.13;;;;;;;8.15;100.00;98001.06;15283352;19;20022;-52
2023/04/15 16:57:56;;;;;;;6.85;5.10;;;;;;;8.12;100.00;98009.44;15292576;19;20019;-51
2023/04/15 17:03:24;;;;;;;7.03;5.10;;;;;;;8.15;100.00;98022.53;15286344;19;20362;-46
2023/04/15 17:08:51;;;;;;;7.80;5.13;;;;;;;8.13;100.00;98021.03;15288617;19;20018;-47
2023/04/15 17:14:16;;;;;;;6.07;5.07;;;;;;;8.14;100.00;98033.44;15284453;19;20021;-46
2023/04/15 17:19:41;;;;;;;6.68;5.07;;;;;;;8.11;100.00;98039.97;15290689;19;20024;-47
2023/04/15 17:25:08;;;;;;;6.25;5.25;;;;;;;8.13;100.00;98047.84;15285154;19;20019;-47
2023/04/15 17:30:34;;;;;;;6.95;5.50;;;;;;;8.14;100.00;98057.59;15280848;19;20421;-47
2023/04/15 17:35:58;;;;;;;9.68;7.00;;;;;;;8.12;100.00;98051.53;15290440;19;20021;-48
2023/04/15 17:41:26;;;;;;;12.52;7.40;;;;;;;8.09;100.00;98065.25;15284864;19;20011;-46
2023/04/15 17:46:50;;;;;;;9.05;6.65;;;;;;;8.08;100.00;98066.25;15286542;19;20019;-46
2023/04/15 17:52:15;;;;;;;8.68;6.07;;;;;;;8.07;100.00;98075.28;15288634;19;20394;-46
2023/04/15 17:57:42;;;;;;;8.70;6.53;;;;;;;8.11;100.00;98084.72;15285881;19;20018;-48
2023/04/15 18:03:07;;;;;;;9.30;6.35;;;;;;;8.13;100.00;98093.47;15282404;19;20392;-45
2023/04/15 18:08:31;;;;;;;8.85;6.57;;;;;;;8.15;100.00;98102.22;15286634;19;20050;-46
2023/04/15 18:13:58;;;;;;;8.82;6.40;;;;;;;8.18;100.00;98107.25;15281268;19;20475;-47
2023/04/15 18:19:30;;;;;;;8.38;6.35;;;;;;;8.21;100.00;98109.63;15286551;19;20439;-46
2023/04/15 18:24:57;;;;;;;7.47;6.30;;;;;;;8.21;100.00;98115.00;15279406;19;20126;-46
2023/04/15 18:30:25;;;;;;;7.80;7.05;;;;;;;8.22;100.00;98132.78;15275814;19;20022;-46
2023/04/15 18:35:50;;;;;;;8.85;7.85;;;;;;;8.25;100.00;98140.53;15285691;19;20082;-46
2023/04/15 18:41:14;;;;;;;9.30;8.40;;;;;;;8.27;100.00;98141.22;15274719;19;20375;-46
2023/04/15 18:46:41;;;;;;;11.70;10.50;;;;;;;8.30;100.00;98151.63;15280751;19;20021;-46
2023/04/15 18:52:06;;;;;;;9.57;8.68;;;;;;;8.31;100.00;98160.56;15283585;19;20034;-46
2023/04/15 18:57:31;;;;;;;11.02;10.02;;;;;;;8.31;100.00;98161.38;15280866;19;20018;-46
2023/04/15 19:02:59;;;;;;;12.65;11.43;;;;;;;8.32;100.00;98167.59;15278721;19;20548;-49
2023/04/15 19:08:24;;;;;;;12.70;11.48;;;;;;;8.38;100.00;98171.53;15284568;19;20018;-46
2023/04/15 19:13:48;;;;;;;8.57;7.78;;;;;;;8.38;100.00;98176.88;15274602;19;20007;-46
2023/04/15 19:19:15;;;;;;;8.00;7.30;;;;;;;8.37;100.00;98181.41;15279299;19;20023;-49
2023/04/15 19:24:41;;;;;;;9.70;8.70;;;;;;;8.29;100.00;98179.47;15280898;19;20016;-49
2023/04/15 19:30:09;;;;;;;14.10;12.65;;;;;;;8.26;100.00;98179.81;15276043;19;20454;-48
2023/04/15 19:35:37;;;;;;;10.15;9.05;;;;;;;8.26;100.00;98190.53;15281228;19;20085;-48
2023/04/15 19:41:02;;;;;;;9.40;8.38;;;;;;;8.26;100.00;98190.53;15275171;19;20020;-49
2023/04/15 19:46:26;;;;;;;9.30;8.40;;;;;;;8.25;100.00;98194.22;15276889;19;20028;-46
2023/04/15 19:51:53;;;;;;;9.60;7.95;;;;;;;8.26;100.00;98190.53;15275123;19;20007;-46
2023/04/15 19:57:18;;;;;;;10.02;9.02;;;;;;;8.25;100.00;98194.22;15275267;19;20078;-50
2023/04/15 20:02:43;;;;;;;10.10;9.10;;;;;;;8.24;100.00;98203.25;15271445;19;20021;-48
2023/04/15 20:08:11;;;;;;;12.15;10.13;;;;;;;8.24;100.00;98192.53;15269520;19;20025;-46
2023/04/15 20:13:36;;;;;;;12.90;10.88;;;;;;;8.21;100.00;98192.81;15270511;19;20442;-47
2023/04/15 20:19:06;;;;;;;15.73;13.88;;;;;;;8.16;100.00;98200.50;15272762;19;20025;-46
2023/04/15 20:24:33;;;;;;;28.27;14.98;;;;;;;8.17;100.00;98202.19;15278749;19;20353;-44
2023/04/15 20:29:58;;;;;;;22.13;18.23;;;;;;;8.16;100.00;98211.22;15276072;19;20025;-45
2023/04/15 20:35:26;;;;;;;20.17;16.42;;;;;;;8.15;100.00;98212.22;15277893;19;20078;-46
2023/04/15 20:40:54;;;;;;;20.33;16.92;;;;;;;8.16;100.00;98216.59;15265437;19;20018;-51
2023/04/15 20:46:20;;;;;;;21.73;17.88;;;;;;;8.18;100.00;98225.31;15272875;19;20014;-46
2023/04/15 20:51:44;;;;;;;21.17;17.55;;;;;;;8.19;100.00;98227.00;15279499;19;20038;-50
2023/04/15 20:57:11;;;;;;;29.60;21.27;;;;;;;8.20;100.00;98234.06;15275811;19;20019;-47
2023/04/15 21:02:36;;;;;;;27.08;21.45;;;;;;;8.23;100.00;98239.13;15273753;19;20018;-46
2023/04/15 21:08:01;;;;;;;25.75;19.92;;;;;;;8.25;100.00;98241.66;15273397;19;20101;-46
2023/04/15 21:13:28;;;;;;;26.30;21.05;;;;;;;8.25;100.00;98250.56;15279380;19;20018;-47
2023/04/15 21:18:53;;;;;;;27.88;21.02;;;;;;;8.27;100.00;98251.28;15291963;19;20015;-47
2023/04/15 21:24:18;;;;;;;25.95;20.38;;;;;;;8.27;100.00;98251.28;15286746;19;20025;-45
2023/04/15 21:29:47;;;;;;;30.40;21.38;;;;;;;8.25;100.00;98261.31;15281552;19;20416;-50
2023/04/15 21:35:12;;;;;;;32.60;22.65;;;;;;;8.25;100.00;98266.69;15284642;19;20018;-46
2023/04/15 21:40:39;;;;;;;40.88;22.50;;;;;;;8.27;100.00;98274.56;15287064;19;20045;-46
2023/04/15 21:46:06;;;;;;;35.63;22.42;;;;;;;8.25;100.00;98280.09;15291889;19;20021;-46
2023/04/15 21:51:42;;;;;;;37.20;24.73;;;;;;;8.24;100.00;98285.59;15291529;19;20014;-48
2023/04/15 21:57:06;;;;;;;32.03;24.92;;;;;;;8.29;100.00;98291.38;15289600;19;20018;-46
2023/04/15 22:02:33;;;;;;;196.48;32.25;;;;;;;8.28;100.00;98290.53;15286536;19;20089;-49
2023/04/15 22:08:02;;;;;;;31.48;23.25;;;;;;;8.31;100.00;98300.94;15287141;19;20022;-49
2023/04/15 22:13:28;;;;;;;33.17;22.88;;;;;;;8.34;100.00;98307.88;15280901;19;20021;-48
2023/04/15 22:18:55;;;;;;;92.40;22.92;;;;;;;8.33;100.00;98309.72;15287296;19;20021;-48
2023/04/15 22:24:20;;;;;;;38.83;20.77;;;;;;;8.34;100.00;98305.19;15284082;19;20014;-48
2023/04/15 22:29:49;;;;;;;148.10;21.45;;;;;;;8.35;100.00;98309.53;15287497;19;20379;-47
2023/04/15 22:35:17;;;;;;;56.63;18.92;;;;;;;8.38;100.00;98319.16;15276894;19;20018;-46
2023/04/15 22:40:42;;;;;;;130.25;18.20;;;;;;;8.38;100.00;98322.69;15276931;19;20018;-48
2023/04/15 22:46:06;;;;;;;58.58;17.05;;;;;;;8.40;100.00;98330.59;15284470;19;20034;-48
2023/04/15 22:51:33;;;;;;;60.95;17.10;;;;;;;8.40;100.00;98333.28;15278512;19;20021;-50
2023/04/15 22:56:58;;;;;;;22.10;16.17;;;;;;;8.40;100.00;98334.13;15284161;19;20025;-48
2023/04/15 23:02:23;;;;;;;23.05;17.17;;;;;;;8.42;100.00;98336.63;15280181;19;20012;-50
2023/04/15 23:07:50;;;;;;;25.77;19.75;;;;;;;8.42;100.00;98339.31;15279945;19;20036;-48
2023/04/15 23:13:15;;;;;;;19.23;16.70;;;;;;;8.43;100.00;98347.25;15276063;19;20588;-46
2023/04/15 23:18:39;;;;;;;26.15;18.50;;;;;;;8.45;100.00;98353.31;15283167;19;20711;-46
2023/04/15 23:24:07;;;;;;;24.77;17.13;;;;;;;8.47;100.00;98339.72;15277957;19;20727;-46
2023/04/15 23:29:31;;;;;;;23.08;19.05;;;;;;;8.44;100.00;98348.06;15284033;19;20691;-46
2023/04/15 23:34:56;;;;;;;24.55;19.45;;;;;;;8.42;100.00;98347.38;15273254;19;20014;-50
2023/04/15 23:40:23;;;;;;;23.58;19.08;;;;;;;8.42;100.00;98347.38;15273739;19;20035;-48
2023/04/15 23:45:48;;;;;;;24.80;18.42;;;;;;;8.43;100.00;98343.69;15277230;19;20042;-51
2023/04/15 23:51:13;;;;;;;19.95;15.27;;;;;;;8.41;100.00;98348.41;15273897;19;20082;-51
2023/04/15 23:56:41;;;;;;;15.43;12.20;;;;;;;8.41;100.00;98349.22;15278902;19;20032;-48
